Time;durP1;ratioP1;P1;durP2;ratioP2;P2;SDS_P1;SDS_P2;PMS_P1;PMS_P2;Temp;Humidity;BMP_temperature;BMP_pressure;BME280_temperature;BME280_humidity;BME280_pressure;Samples;Min_cycle;Max_cycle;Signal;HPM_P1;HPM_P2
2021/04/04 00:02:02;;;;;;;41.85;18.33;;;;;;;;;;4966815;28;20607;-78
2021/04/04 00:04:29;;;;;;;39.83;16.67;;;;;;;;;;4986301;28;20203;-78
2021/04/04 00:06:56;;;;;;;26.67;13.57;;;;;;;;;;4967928;28;20150;-78
2021/04/04 00:09:23;;;;;;;30.90;13.85;;;;;;;;;;4985979;28;20046;-78
2021/04/04 00:11:50;;;;;;;28.77;13.88;;;;;;;;;;4985605;28;20066;-78
2021/04/04 00:14:17;;;;;;;29.30;13.90;;;;;;;;;;4967762;28;20093;-78
2021/04/04 00:16:44;;;;;;;30.80;15.35;;;;;;;;;;4983365;28;20145;-78
2021/04/04 00:19:11;;;;;;;34.88;16.70;;;;;;;;;;4964257;28;20046;-78
2021/04/04 00:21:38;;;;;;;31.52;15.23;;;;;;;;;;4964108;28;20869;-78
2021/04/04 00:24:06;;;;;;;31.60;15.23;;;;;;;;;;4968336;28;20051;-78
2021/04/04 00:26:32;;;;;;;39.10;16.25;;;;;;;;;;4964522;28;20084;-78
2021/04/04 00:28:59;;;;;;;37.08;17.38;;;;;;;;;;4969295;28;20168;-78
2021/04/04 00:31:26;;;;;;;32.60;15.95;;;;;;;;;;4985141;28;20046;-78
2021/04/04 00:33:53;;;;;;;38.72;17.35;;;;;;;;;;4968163;28;20093;-78
2021/04/04 00:36:20;;;;;;;35.83;16.17;;;;;;;;;;4984223;28;20058;-78
2021/04/04 00:38:47;;;;;;;32.92;15.65;;;;;;;;;;4984604;28;20607;-78
2021/04/04 00:41:13;;;;;;;36.65;15.18;;;;;;;;;;4965033;28;20149;-78
2021/04/04 00:43:40;;;;;;;33.38;15.07;;;;;;;;;;4964869;28;20086;-78
2021/04/04 00:46:07;;;;;;;40.67;16.27;;;;;;;;;;4982337;28;20050;-78
2021/04/04 00:48:38;;;;;;;35.92;14.93;;;;;;;;;;4967616;28;20050;-78
2021/04/04 00:51:05;;;;;;;37.65;14.43;;;;;;;;;;4984239;28;21043;-78
2021/04/04 00:53:32;;;;;;;33.53;14.98;;;;;;;;;;4985457;28;20085;-78
2021/04/04 00:55:58;;;;;;;37.15;14.55;;;;;;;;;;4967310;28;20324;-78
2021/04/04 00:58:25;;;;;;;32.97;15.18;;;;;;;;;;4968197;28;20078;-78
2021/04/04 01:00:52;;;;;;;26.88;13.88;;;;;;;;;;4969960;28;20046;-78
2021/04/04 01:03:19;;;;;;;28.10;13.10;;;;;;;;;;4967069;28;20093;-78
2021/04/04 01:05:49;;;;;;;27.10;14.30;;;;;;;;;;4967806;28;20074;-78
2021/04/04 01:08:15;;;;;;;32.13;13.35;;;;;;;;;;4983000;28;20058;-78
2021/04/04 01:10:46;;;;;;;35.75;13.90;;;;;;;;;;4969154;28;20050;-78
2021/04/04 01:13:31;;;;;;;28.45;13.73;;;;;;;;;;4982939;28;20613;-78
2021/04/04 01:16:04;;;;;;;29.40;14.27;;;;;;;;;;4985546;28;20148;-78
2021/04/04 01:18:31;;;;;;;25.88;13.10;;;;;;;;;;4966476;28;20145;-78
2021/04/04 01:21:12;;;;;;;31.35;13.50;;;;;;;;;;4966914;28;20547;-78
2021/04/04 01:23:40;;;;;;;24.23;12.70;;;;;;;;;;4966646;28;20504;-78
2021/04/04 01:26:15;;;;;;;31.70;12.43;;;;;;;;;;4982803;28;20695;-78
2021/04/04 01:28:43;;;;;;;22.55;12.23;;;;;;;;;;4967346;28;20109;-78
2021/04/04 01:31:11;;;;;;;29.15;12.45;;;;;;;;;;4982457;28;20163;-78
2021/04/04 01:33:39;;;;;;;26.48;11.90;;;;;;;;;;4980805;28;20054;-78
2021/04/04 01:36:09;;;;;;;25.50;12.57;;;;;;;;;;4982082;28;20132;-77
2021/04/04 01:38:38;;;;;;;27.00;11.55;;;;;;;;;;4982373;28;20054;-78
2021/04/04 01:41:27;;;;;;;24.35;10.70;;;;;;;;;;4981200;28;20420;-78
2021/04/04 01:43:57;;;;;;;21.83;10.95;;;;;;;;;;4980498;28;20054;-78
2021/04/04 01:46:25;;;;;;;27.13;11.85;;;;;;;;;;4966124;28;20200;-78
2021/04/04 01:48:51;;;;;;;26.15;11.50;;;;;;;;;;4968628;28;20133;-78
2021/04/04 01:51:19;;;;;;;29.17;11.85;;;;;;;;;;4965128;28;20054;-78
2021/04/04 01:53:46;;;;;;;31.63;11.63;;;;;;;;;;4966817;28;20073;-78
2021/04/04 01:56:12;;;;;;;26.85;10.45;;;;;;;;;;4968127;28;20058;-78
2021/04/04 01:58:40;;;;;;;21.92;11.30;;;;;;;;;;4963331;28;20133;-78
2021/04/04 02:01:07;;;;;;;25.40;11.50;;;;;;;;;;4965101;28;20682;-77
2021/04/04 02:03:35;;;;;;;21.70;10.18;;;;;;;;;;4964316;28;20085;-77
2021/04/04 02:06:02;;;;;;;23.05;10.02;;;;;;;;;;4961984;28;20081;-77
2021/04/04 02:08:29;;;;;;;27.40;9.82;;;;;;;;;;4982301;28;20134;-77
2021/04/04 02:10:57;;;;;;;25.25;9.88;;;;;;;;;;4967950;28;20137;-77
2021/04/04 02:13:24;;;;;;;23.85;11.20;;;;;;;;;;4982636;28;20099;-77
2021/04/04 02:15:52;;;;;;;24.00;10.32;;;;;;;;;;4983431;28;20078;-78
2021/04/04 02:18:19;;;;;;;25.55;10.00;;;;;;;;;;4965696;28;20058;-78
2021/04/04 02:20:47;;;;;;;27.30;11.40;;;;;;;;;;4984183;28;20078;-77
2021/04/04 02:23:15;;;;;;;34.47;13.07;;;;;;;;;;4962579;28;20074;-78
2021/04/04 02:25:41;;;;;;;20.45;12.30;;;;;;;;;;4964284;28;20128;-78
2021/04/04 02:28:09;;;;;;;24.17;12.77;;;;;;;;;;4981522;28;20181;-78
2021/04/04 02:30:39;;;;;;;27.48;11.93;;;;;;;;;;4965876;28;20054;-78
2021/04/04 02:33:10;;;;;;;27.60;11.90;;;;;;;;;;4980518;28;20137;-78
2021/04/04 02:35:38;;;;;;;24.42;11.30;;;;;;;;;;4981325;28;20081;-78
2021/04/04 02:38:11;;;;;;;21.73;10.30;;;;;;;;;;4983854;28;20109;-77
2021/04/04 02:40:40;;;;;;;18.20;9.88;;;;;;;;;;4964551;28;20456;-77
2021/04/04 02:43:07;;;;;;;20.67;10.40;;;;;;;;;;4964527;28;20129;-78
2021/04/04 02:45:35;;;;;;;26.35;10.95;;;;;;;;;;4965793;28;20054;-78
2021/04/04 02:48:04;;;;;;;18.50;9.88;;;;;;;;;;4980800;28;20459;-78
2021/04/04 02:50:31;;;;;;;22.10;10.85;;;;;;;;;;4978672;28;20046;-77
2021/04/04 02:52:59;;;;;;;21.55;11.38;;;;;;;;;;4964374;28;20050;-77
2021/04/04 02:55:27;;;;;;;21.38;10.07;;;;;;;;;;4961333;28;20108;-77
2021/04/04 02:57:55;;;;;;;26.20;10.55;;;;;;;;;;4980933;28;20680;-77
2021/04/04 03:00:22;;;;;;;22.10;10.25;;;;;;;;;;4964311;28;20074;-77
2021/04/04 03:02:51;;;;;;;20.88;10.30;;;;;;;;;;4964740;28;20149;-78
2021/04/04 03:05:20;;;;;;;19.02;10.02;;;;;;;;;;4982349;28;20428;-77
2021/04/04 03:07:48;;;;;;;23.00;10.60;;;;;;;;;;4962906;28;20141;-77
2021/04/04 03:10:15;;;;;;;18.50;9.55;;;;;;;;;;4964960;28;20467;-77
2021/04/04 03:12:43;;;;;;;23.63;10.18;;;;;;;;;;4980276;28;20058;-78
2021/04/04 03:15:11;;;;;;;22.48;9.75;;;;;;;;;;4979759;28;20082;-77
2021/04/04 03:17:41;;;;;;;30.90;10.07;;;;;;;;;;4978686;28;20184;-77
2021/04/04 03:20:09;;;;;;;22.85;11.02;;;;;;;;;;4962931;28;20506;-77
2021/04/04 03:22:37;;;;;;;29.17;9.60;;;;;;;;;;4964878;28;20055;-77
2021/04/04 03:25:06;;;;;;;21.65;9.20;;;;;;;;;;4965298;28;20097;-77
2021/04/04 03:27:34;;;;;;;24.52;9.82;;;;;;;;;;4981263;28;20126;-77
2021/04/04 03:30:01;;;;;;;16.95;10.20;;;;;;;;;;4965295;28;20503;-77
2021/04/04 03:32:28;;;;;;;22.90;10.13;;;;;;;;;;4981220;28;20051;-77
2021/04/04 03:34:55;;;;;;;16.80;7.75;;;;;;;;;;4981765;28;20050;-77
2021/04/04 03:37:23;;;;;;;25.63;10.10;;;;;;;;;;4963009;28;21304;-77
2021/04/04 03:39:50;;;;;;;20.65;9.77;;;;;;;;;;4980619;28;20149;-77
2021/04/04 03:42:18;;;;;;;18.60;9.60;;;;;;;;;;4962998;28;20104;-77
2021/04/04 03:44:44;;;;;;;20.73;9.80;;;;;;;;;;4962352;28;20061;-77
2021/04/04 03:47:12;;;;;;;28.58;10.07;;;;;;;;;;4979877;28;20127;-77
2021/04/04 03:49:39;;;;;;;23.90;10.02;;;;;;;;;;4980306;28;20153;-77
2021/04/04 03:52:07;;;;;;;19.25;10.35;;;;;;;;;;4980071;28;20053;-76
2021/04/04 03:54:35;;;;;;;24.05;10.52;;;;;;;;;;4979468;28;20165;-77
2021/04/04 03:57:02;;;;;;;26.08;10.18;;;;;;;;;;4962645;28;20141;-76
2021/04/04 03:59:30;;;;;;;22.08;10.63;;;;;;;;;;4963836;28;20527;-76
2021/04/04 04:01:57;;;;;;;26.13;9.82;;;;;;;;;;4978621;28;20140;-76
2021/04/04 04:04:25;;;;;;;20.63;9.18;;;;;;;;;;4979969;28;20081;-77
2021/04/04 04:06:53;;;;;;;22.55;9.88;;;;;;;;;;4962004;28;20077;-76
2021/04/04 04:09:19;;;;;;;21.10;8.70;;;;;;;;;;4967462;28;20078;-76
2021/04/04 04:11:47;;;;;;;19.83;9.32;;;;;;;;;;4982060;28;20554;-77
2021/04/04 04:14:19;;;;;;;19.48;9.50;;;;;;;;;;4965809;28;20059;-76
2021/04/04 04:16:46;;;;;;;18.70;9.75;;;;;;;;;;4965636;28;20097;-76
2021/04/04 04:19:16;;;;;;;23.50;9.57;;;;;;;;;;4985025;28;20065;-77
2021/04/04 04:21:43;;;;;;;17.73;8.93;;;;;;;;;;4982262;28;20050;-77
2021/04/04 04:24:10;;;;;;;23.05;8.85;;;;;;;;;;4964340;28;20089;-76
2021/04/04 04:26:39;;;;;;;16.88;7.75;;;;;;;;;;4983178;28;20046;-77
2021/04/04 04:29:06;;;;;;;20.38;8.27;;;;;;;;;;4983242;28;20487;-76
2021/04/04 04:31:35;;;;;;;17.02;7.68;;;;;;;;;;4983787;28;20106;-76
2021/04/04 04:34:02;;;;;;;15.95;7.78;;;;;;;;;;4966135;28;20050;-76
2021/04/04 04:36:30;;;;;;;17.23;7.38;;;;;;;;;;4984765;28;20062;-77
2021/04/04 04:38:58;;;;;;;16.85;7.72;;;;;;;;;;4981326;28;20153;-76
2021/04/04 04:41:25;;;;;;;19.00;8.57;;;;;;;;;;4982200;28;20066;-76
2021/04/04 04:43:59;;;;;;;16.88;8.88;;;;;;;;;;4983106;28;20172;-76
2021/04/04 04:46:28;;;;;;;20.75;9.48;;;;;;;;;;4983396;28;20074;-76
2021/04/04 04:48:55;;;;;;;17.30;8.23;;;;;;;;;;4977846;28;20052;-76
2021/04/04 04:51:23;;;;;;;19.85;7.90;;;;;;;;;;4977775;28;20137;-76
2021/04/04 04:53:50;;;;;;;23.27;8.95;;;;;;;;;;4980274;28;20054;-76
2021/04/04 04:56:17;;;;;;;19.23;8.85;;;;;;;;;;4981310;28;20058;-77
2021/04/04 04:58:44;;;;;;;18.85;8.85;;;;;;;;;;4983086;28;20105;-76
2021/04/04 05:01:12;;;;;;;20.65;8.93;;;;;;;;;;4964937;28;20141;-76
2021/04/04 05:03:40;;;;;;;18.02;9.57;;;;;;;;;;4965685;28;20062;-76
2021/04/04 05:06:08;;;;;;;24.42;11.15;;;;;;;;;;4964333;28;20042;-77
2021/04/04 05:08:35;;;;;;;17.13;8.70;;;;;;;;;;4966687;28;20468;-76
2021/04/04 05:11:05;;;;;;;20.92;8.93;;;;;;;;;;4965793;28;20046;-76
2021/04/04 05:13:32;;;;;;;18.40;9.00;;;;;;;;;;4985238;28;20074;-77
2021/04/04 05:16:07;;;;;;;18.65;9.35;;;;;;;;;;4966057;28;20061;-77
2021/04/04 05:18:34;;;;;;;21.17;9.52;;;;;;;;;;4965260;28;20064;-77
2021/04/04 05:21:01;;;;;;;18.48;8.65;;;;;;;;;;4983456;28;20046;-77
2021/04/04 05:23:28;;;;;;;19.30;9.32;;;;;;;;;;4982709;28;20133;-76
2021/04/04 05:25:55;;;;;;;25.00;9.45;;;;;;;;;;4966184;28;20129;-77
2021/04/04 05:28:22;;;;;;;25.92;9.93;;;;;;;;;;4966302;28;20126;-77
2021/04/04 05:30:48;;;;;;;21.25;10.07;;;;;;;;;;4983690;28;20890;-77
2021/04/04 05:33:15;;;;;;;27.30;10.82;;;;;;;;;;4965423;28;20493;-77
2021/04/04 05:35:43;;;;;;;24.83;9.82;;;;;;;;;;4964208;28;20062;-77
2021/04/04 05:38:10;;;;;;;18.63;9.75;;;;;;;;;;4983859;28;22729;-77
2021/04/04 05:40:38;;;;;;;22.23;9.77;;;;;;;;;;4979881;28;20751;-77
2021/04/04 05:43:14;;;;;;;20.13;9.88;;;;;;;;;;4964034;28;20058;-77
2021/04/04 05:45:46;;;;;;;24.20;10.18;;;;;;;;;;4979692;28;20054;-77
2021/04/04 05:48:36;;;;;;;20.65;10.82;;;;;;;;;;4964937;28;20135;-77
2021/04/04 05:51:22;;;;;;;25.55;11.60;;;;;;;;;;4965805;28;20060;-77
2021/04/04 05:53:57;;;;;;;32.88;13.57;;;;;;;;;;4984003;28;20046;-76
2021/04/04 05:56:41;;;;;;;41.00;15.75;;;;;;;;;;4978955;28;20081;-77
2021/04/04 05:59:18;;;;;;;49.35;17.05;;;;;;;;;;4964657;28;20141;-77
2021/04/04 06:01:54;;;;;;;50.75;18.58;;;;;;;;;;4965658;28;20508;-77
2021/04/04 06:04:39;;;;;;;54.45;20.33;;;;;;;;;;4981889;28;20356;-77
2021/04/04 06:07:24;;;;;;;48.22;19.58;;;;;;;;;;4983870;28;20092;-77
2021/04/04 06:09:59;;;;;;;57.17;21.33;;;;;;;;;;4966008;28;20159;-77
2021/04/04 06:12:32;;;;;;;52.95;19.27;;;;;;;;;;4983231;28;20109;-77
2021/04/04 06:15:17;;;;;;;57.58;21.13;;;;;;;;;;4964054;28;20129;-77
2021/04/04 06:17:58;;;;;;;60.47;22.80;;;;;;;;;;4979295;28;20077;-77
2021/04/04 06:20:44;;;;;;;53.80;20.42;;;;;;;;;;4979783;28;20336;-77
2021/04/04 06:23:18;;;;;;;61.50;21.27;;;;;;;;;;4980477;28;20042;-77
2021/04/04 06:25:54;;;;;;;60.53;21.80;;;;;;;;;;4963040;28;20149;-77
2021/04/04 06:28:21;;;;;;;57.05;21.83;;;;;;;;;;4964393;28;20050;-77
2021/04/04 06:30:55;;;;;;;62.92;21.23;;;;;;;;;;4965048;28;20540;-77
2021/04/04 06:33:31;;;;;;;58.78;20.75;;;;;;;;;;4983671;28;21525;-77
2021/04/04 06:35:57;;;;;;;;;;;;;;;;;;4982699;28;20495;-77
2021/04/04 06:38:33;;;;;;;58.85;19.70;;;;;;;;;;4981860;28;20009;-77
2021/04/04 06:41:07;;;;;;;54.53;20.17;;;;;;;;;;4981146;28;20491;-77
2021/04/04 06:43:40;;;;;;;57.75;19.85;;;;;;;;;;4965585;28;20061;-77
2021/04/04 06:46:06;;;;;;;50.47;19.75;;;;;;;;;;4964791;28;20109;-78
2021/04/04 06:48:52;;;;;;;56.55;19.13;;;;;;;;;;4962988;28;20050;-77
2021/04/04 06:51:19;;;;;;;;;;;;;;;;;;4981187;28;20054;-77
2021/04/04 06:53:55;;;;;;;52.20;18.30;;;;;;;;;;4982949;28;20335;-77
2021/04/04 06:56:41;;;;;;;44.95;18.67;;;;;;;;;;4964002;28;20058;-77
2021/04/04 06:59:16;;;;;;;61.35;17.27;;;;;;;;;;4963823;28;20093;-78
2021/04/04 07:01:58;;;;;;;44.92;17.58;;;;;;;;;;4965179;28;20093;-77
2021/04/04 07:04:32;;;;;;;49.63;17.40;;;;;;;;;;4962727;28;20054;-77
2021/04/04 07:07:18;;;;;;;41.58;17.23;;;;;;;;;;4964751;28;20709;-77
2021/04/04 07:09:44;;;;;;;;;;;;;;;;;;4964810;28;20472;-78
2021/04/04 07:12:25;;;;;;;47.47;17.75;;;;;;;;;;4966517;28;20021;-78
2021/04/04 07:15:11;;;;;;;54.33;16.08;;;;;;;;;;4979611;28;20528;-79
2021/04/04 07:17:54;;;;;;;52.00;16.73;;;;;;;;;;4961379;28;20138;-80
2021/04/04 07:20:40;;;;;;;41.97;16.27;;;;;;;;;;4963984;28;20759;-79
2021/04/04 07:23:08;;;;;;;41.17;14.63;;;;;;;;;;4964769;28;20051;-79
2021/04/04 07:25:34;;;;;;;38.13;14.82;;;;;;;;;;4964149;28;20097;-78
2021/04/04 07:28:20;;;;;;;44.08;15.38;;;;;;;;;;4965853;28;20074;-77
2021/04/04 07:30:54;;;;;;;44.67;15.05;;;;;;;;;;4964629;28;20070;-79
2021/04/04 07:33:39;;;;;;;37.38;13.40;;;;;;;;;;4964288;28;20113;-77
2021/04/04 07:36:20;;;;;;;36.38;12.00;;;;;;;;;;4984741;28;20078;-79
2021/04/04 07:39:16;;;;;;;33.00;10.02;;;;;;;;;;4980085;28;20054;-80
2021/04/04 07:41:44;;;;;;;28.85;8.95;;;;;;;;;;4958852;28;20078;-78
2021/04/04 07:44:18;;;;;;;21.92;8.48;;;;;;;;;;4967678;28;20149;-80
2021/04/04 07:46:55;;;;;;;25.45;9.25;;;;;;;;;;4967193;28;20133;-78
2021/04/04 07:49:54;;;;;;;23.90;7.75;;;;;;;;;;4982814;28;20089;-79
2021/04/04 07:52:26;;;;;;;24.38;8.38;;;;;;;;;;4927629;28;20109;-80
2021/04/04 07:55:16;;;;;;;30.10;9.35;;;;;;;;;;4983081;28;20050;-79
2021/04/04 07:57:56;;;;;;;25.08;7.75;;;;;;;;;;4962312;28;20058;-83
2021/04/04 08:00:23;;;;;;;24.88;7.32;;;;;;;;;;4968089;28;20046;-84
2021/04/04 08:02:58;;;;;;;22.27;6.20;;;;;;;;;;4971872;28;20100;-84
2021/04/04 08:05:30;;;;;;;29.83;6.15;;;;;;;;;;4971294;28;20051;-84
2021/04/04 08:08:00;;;;;;;25.80;6.55;;;;;;;;;;4972343;28;20109;-81
2021/04/04 08:10:32;;;;;;;24.13;5.35;;;;;;;;;;4970750;28;20402;-83
2021/04/04 08:13:17;;;;;;;23.80;5.53;;;;;;;;;;4970207;28;20082;-81
2021/04/04 08:16:04;;;;;;;16.70;4.72;;;;;;;;;;4968415;28;20101;-77
2021/04/04 08:18:31;;;;;;;20.83;5.00;;;;;;;;;;4970298;28;20077;-76
2021/04/04 08:21:01;;;;;;;22.55;4.60;;;;;;;;;;4966102;28;20125;-76
2021/04/04 08:23:29;;;;;;;15.68;4.78;;;;;;;;;;4979465;28;20133;-80
2021/04/04 08:26:01;;;;;;;19.67;4.88;;;;;;;;;;4983996;28;20199;-80
2021/04/04 08:28:40;;;;;;;30.70;5.13;;;;;;;;;;4969022;28;20125;-83
2021/04/04 08:31:19;;;;;;;17.17;4.95;;;;;;;;;;4989658;28;20157;-82
2021/04/04 08:33:48;;;;;;;29.20;5.50;;;;;;;;;;4971636;28;20058;-83
2021/04/04 08:36:23;;;;;;;21.30;4.72;;;;;;;;;;4971202;28;20051;-84
2021/04/04 08:38:56;;;;;;;13.70;4.50;;;;;;;;;;4987945;28;20137;-82
2021/04/04 08:41:24;;;;;;;20.70;4.30;;;;;;;;;;4970616;28;20054;-83
2021/04/04 08:43:58;;;;;;;21.30;3.60;;;;;;;;;;4970042;28;20081;-83
2021/04/04 08:46:43;;;;;;;15.10;3.72;;;;;;;;;;4986360;28;20077;-83
2021/04/04 08:49:10;;;;;;;;;;;;;;;;;;4988200;28;20086;-85
2021/04/04 08:51:50;;;;;;;17.42;3.88;;;;;;;;;;4985688;28;20003;-82
2021/04/04 08:54:24;;;;;;;15.45;3.72;;;;;;;;;;4985792;28;20149;-82
2021/04/04 08:56:55;;;;;;;20.58;3.67;;;;;;;;;;4971654;28;20082;-81
2021/04/04 08:59:23;;;;;;;15.82;3.33;;;;;;;;;;4986367;28;20462;-84
2021/04/04 09:01:54;;;;;;;12.15;3.28;;;;;;;;;;4971799;28;20062;-85
2021/04/04 09:04:24;;;;;;;21.13;4.57;;;;;;;;;;4974006;28;20129;-86
2021/04/04 09:06:52;;;;;;;20.83;3.42;;;;;;;;;;4988391;28;20109;-85
2021/04/04 09:09:23;;;;;;;12.75;2.63;;;;;;;;;;4967217;28;20054;-83
2021/04/04 09:11:52;;;;;;;13.73;3.47;;;;;;;;;;4970826;28;20082;-82
2021/04/04 09:14:19;;;;;;;15.10;3.47;;;;;;;;;;4970195;28;20103;-85
2021/04/04 09:16:52;;;;;;;20.25;2.90;;;;;;;;;;4986983;28;20074;-84
2021/04/04 09:19:29;;;;;;;22.58;3.35;;;;;;;;;;4971217;28;20475;-83
2021/04/04 09:21:58;;;;;;;16.90;3.70;;;;;;;;;;4981211;28;20078;-84
2021/04/04 09:24:25;;;;;;;17.00;4.10;;;;;;;;;;4966785;28;20117;-84
2021/04/04 09:26:54;;;;;;;11.65;3.10;;;;;;;;;;4984757;28;20042;-82
2021/04/04 09:29:21;;;;;;;17.02;3.80;;;;;;;;;;4983471;28;20097;-82
2021/04/04 09:31:54;;;;;;;14.27;3.33;;;;;;;;;;4966646;28;20085;-80
2021/04/04 09:34:23;;;;;;;18.98;3.90;;;;;;;;;;4968712;28;20661;-79
2021/04/04 09:36:50;;;;;;;11.90;3.22;;;;;;;;;;4978616;28;20768;-79
2021/04/04 09:39:24;;;;;;;20.95;3.72;;;;;;;;;;4980306;28;20108;-78
2021/04/04 09:41:52;;;;;;;20.00;3.47;;;;;;;;;;4983643;28;20506;-82
2021/04/04 09:44:28;;;;;;;19.10;3.65;;;;;;;;;;4967919;28;20050;-81
2021/04/04 09:46:55;;;;;;;13.15;3.95;;;;;;;;;;4960899;28;20135;-77
2021/04/04 09:49:35;;;;;;;16.92;4.30;;;;;;;;;;4980504;28;20157;-79
2021/04/04 09:52:14;;;;;;;18.35;3.60;;;;;;;;;;4981895;28;20046;-80
2021/04/04 09:55:04;;;;;;;16.75;4.18;;;;;;;;;;4962355;28;20042;-79
2021/04/04 09:57:55;;;;;;;16.65;4.65;;;;;;;;;;4966193;28;20061;-79
2021/04/04 10:00:24;;;;;;;19.15;4.18;;;;;;;;;;4980849;28;20050;-78
2021/04/04 10:02:51;;;;;;;18.98;3.95;;;;;;;;;;4964485;28;20141;-78
2021/04/04 10:05:27;;;;;;;19.42;4.72;;;;;;;;;;4980199;28;20133;-78
2021/04/04 10:07:54;;;;;;;16.40;4.22;;;;;;;;;;4963396;28;20043;-78
2021/04/04 10:10:30;;;;;;;17.40;4.28;;;;;;;;;;4979339;28;20136;-79
2021/04/04 10:12:59;;;;;;;19.00;5.00;;;;;;;;;;4966677;28;20772;-79
2021/04/04 10:15:26;;;;;;;17.98;5.10;;;;;;;;;;4982806;28;20050;-79
2021/04/04 10:17:59;;;;;;;23.10;4.50;;;;;;;;;;4982859;28;20045;-83
2021/04/04 10:20:30;;;;;;;21.40;4.47;;;;;;;;;;4984363;28;20058;-83
2021/04/04 10:22:57;;;;;;;16.48;5.00;;;;;;;;;;4983036;28;20145;-80
2021/04/04 10:25:27;;;;;;;18.83;5.32;;;;;;;;;;4967553;28;20054;-81
2021/04/04 10:27:58;;;;;;;15.02;4.20;;;;;;;;;;4962404;28;22851;-81
2021/04/04 10:30:30;;;;;;;16.55;4.70;;;;;;;;;;4980077;28;20078;-81
2021/04/04 10:32:57;;;;;;;13.93;4.43;;;;;;;;;;4962034;28;20156;-87
2021/04/04 10:35:39;;;;;;;10.90;4.28;;;;;;;;;;4961879;28;20042;-85
2021/04/04 10:38:07;;;;;;;16.17;4.07;;;;;;;;;;4962966;28;20813;-84
2021/04/04 10:40:53;;;;;;;13.45;4.07;;;;;;;;;;4963248;28;20774;-82
2021/04/04 10:43:25;;;;;;;13.27;3.50;;;;;;;;;;4960780;28;20442;-85
2021/04/04 10:45:59;;;;;;;18.13;4.18;;;;;;;;;;4975353;28;20148;-83
2021/04/04 10:48:25;;;;;;;17.00;3.83;;;;;;;;;;4971541;28;20092;-84
2021/04/04 10:50:52;;;;;;;14.10;3.40;;;;;;;;;;4962147;28;20113;-85
2021/04/04 10:53:20;;;;;;;15.15;3.90;;;;;;;;;;4959668;28;20133;-86
2021/04/04 10:55:51;;;;;;;16.42;4.07;;;;;;;;;;4976670;28;20153;-80
2021/04/04 10:58:23;;;;;;;16.58;3.95;;;;;;;;;;4975896;28;20050;-81
2021/04/04 11:00:51;;;;;;;17.75;4.32;;;;;;;;;;4962273;28;20480;-80
2021/04/04 11:03:18;;;;;;;18.98;4.25;;;;;;;;;;4961417;28;20062;-81
2021/04/04 11:05:47;;;;;;;14.98;4.75;;;;;;;;;;4961375;28;20691;-80
2021/04/04 11:08:14;;;;;;;13.80;4.28;;;;;;;;;;4976790;28;20116;-80
2021/04/04 11:10:46;;;;;;;16.85;4.00;;;;;;;;;;4961823;28;20046;-83
2021/04/04 11:13:15;;;;;;;15.10;4.03;;;;;;;;;;4960889;28;20133;-82
2021/04/04 11:15:49;;;;;;;17.05;4.45;;;;;;;;;;4977756;28;20149;-82
2021/04/04 11:18:43;;;;;;;15.52;4.18;;;;;;;;;;4960604;28;20140;-83
2021/04/04 11:21:14;;;;;;;16.33;5.03;;;;;;;;;;4977413;28;20494;-84
2021/04/04 11:23:44;;;;;;;17.38;5.47;;;;;;;;;;4978284;28;20105;-81
2021/04/04 11:26:24;;;;;;;14.23;4.20;;;;;;;;;;4978541;28;20475;-84
2021/04/04 11:29:11;;;;;;;17.38;4.47;;;;;;;;;;4964602;28;20132;-82
2021/04/04 11:31:43;;;;;;;15.68;4.50;;;;;;;;;;4964847;28;20050;-81
2021/04/04 11:34:23;;;;;;;13.25;4.45;;;;;;;;;;4966897;28;20089;-80
2021/04/04 11:36:53;;;;;;;18.08;5.28;;;;;;;;;;4987580;28;20112;-81
2021/04/04 11:39:21;;;;;;;17.92;6.05;;;;;;;;;;4971265;28;20058;-83
2021/04/04 11:41:49;;;;;;;14.18;4.60;;;;;;;;;;4968829;28;20133;-82
2021/04/04 11:44:20;;;;;;;22.05;7.40;;;;;;;;;;4968767;28;20097;-84
2021/04/04 11:46:59;;;;;;;13.27;4.57;;;;;;;;;;4967274;28;20544;-83
2021/04/04 11:49:30;;;;;;;14.25;4.85;;;;;;;;;;4963949;28;20054;-85
2021/04/04 11:52:00;;;;;;;13.43;4.85;;;;;;;;;;4965183;28;20063;-85
2021/04/04 11:54:42;;;;;;;11.00;4.70;;;;;;;;;;4984851;28;20078;-84
2021/04/04 11:57:08;;;;;;;15.57;4.85;;;;;;;;;;4962666;28;20158;-84
2021/04/04 11:59:37;;;;;;;11.43;5.10;;;;;;;;;;4964977;28;20162;-83
2021/04/04 12:02:04;;;;;;;16.13;5.18;;;;;;;;;;4967765;28;20566;-82
2021/04/04 12:04:42;;;;;;;11.75;4.95;;;;;;;;;;4967617;28;20058;-82
2021/04/04 12:07:10;;;;;;;20.08;4.90;;;;;;;;;;4961623;28;20129;-82
2021/04/04 12:09:38;;;;;;;11.52;5.47;;;;;;;;;;4964521;28;20050;-83
2021/04/04 12:12:05;;;;;;;16.65;4.63;;;;;;;;;;4967907;28;20141;-83
2021/04/04 12:14:32;;;;;;;10.48;4.45;;;;;;;;;;4965397;28;20639;-82
2021/04/04 12:16:59;;;;;;;15.85;6.28;;;;;;;;;;4964844;28;20174;-83
2021/04/04 12:19:29;;;;;;;15.90;4.38;;;;;;;;;;4967740;28;20128;-83
2021/04/04 12:21:56;;;;;;;15.77;4.22;;;;;;;;;;4986094;28;21011;-83
2021/04/04 12:24:42;;;;;;;14.15;4.00;;;;;;;;;;4979330;28;20130;-83
2021/04/04 12:27:12;;;;;;;12.52;3.95;;;;;;;;;;4978485;28;20539;-83
2021/04/04 12:29:43;;;;;;;13.38;4.47;;;;;;;;;;4964979;28;20143;-82
2021/04/04 12:32:10;;;;;;;17.88;5.32;;;;;;;;;;4971189;28;20500;-83
2021/04/04 12:34:41;;;;;;;12.63;4.05;;;;;;;;;;4989101;28;20078;-83
2021/04/04 12:37:15;;;;;;;15.63;6.22;;;;;;;;;;4969182;28;20129;-83
2021/04/04 12:39:48;;;;;;;20.50;6.45;;;;;;;;;;4973757;28;20609;-83
2021/04/04 12:42:16;;;;;;;15.30;5.57;;;;;;;;;;4972643;28;20141;-82
2021/04/04 12:44:44;;;;;;;17.05;5.40;;;;;;;;;;4986939;28;20140;-82
2021/04/04 12:47:15;;;;;;;17.83;4.30;;;;;;;;;;4987612;28;20065;-82
2021/04/04 12:49:43;;;;;;;16.45;4.18;;;;;;;;;;4988306;28;20488;-82
2021/04/04 12:52:11;;;;;;;12.80;4.85;;;;;;;;;;4969936;28;20134;-83
2021/04/04 12:54:38;;;;;;;15.23;5.43;;;;;;;;;;4965230;28;20074;-83
2021/04/04 12:57:05;;;;;;;12.55;4.35;;;;;;;;;;4968403;28;20073;-83
2021/04/04 12:59:34;;;;;;;10.68;4.20;;;;;;;;;;4983386;28;20742;-83
2021/04/04 13:02:01;;;;;;;13.98;3.55;;;;;;;;;;4968049;28;20050;-83
2021/04/04 13:04:27;;;;;;;15.82;4.55;;;;;;;;;;4986004;28;20483;-82
2021/04/04 13:06:57;;;;;;;18.80;4.70;;;;;;;;;;4966678;28;20144;-83
2021/04/04 13:09:24;;;;;;;19.60;4.57;;;;;;;;;;4983748;28;20583;-83
2021/04/04 13:11:51;;;;;;;12.07;4.43;;;;;;;;;;4987316;28;20145;-83
2021/04/04 13:14:24;;;;;;;17.65;5.43;;;;;;;;;;4986080;28;20546;-83
2021/04/04 13:17:01;;;;;;;15.85;4.35;;;;;;;;;;4984925;28;20053;-84
2021/04/04 13:19:28;;;;;;;13.43;4.70;;;;;;;;;;4983773;28;20478;-83
2021/04/04 13:21:54;;;;;;;14.13;4.70;;;;;;;;;;4968482;28;20070;-82
2021/04/04 13:24:21;;;;;;;16.45;4.43;;;;;;;;;;4970623;28;20054;-83
2021/04/04 13:26:49;;;;;;;13.25;4.53;;;;;;;;;;4970279;28;20563;-83
2021/04/04 13:29:20;;;;;;;13.88;4.43;;;;;;;;;;4971753;28;20095;-83
2021/04/04 13:31:57;;;;;;;14.68;4.88;;;;;;;;;;4970029;28;20046;-84
2021/04/04 13:34:26;;;;;;;9.75;4.03;;;;;;;;;;4984743;28;20129;-84
2021/04/04 13:36:57;;;;;;;11.57;4.03;;;;;;;;;;4986324;28;21606;-84
2021/04/04 13:39:31;;;;;;;16.38;5.30;;;;;;;;;;4969884;28;20476;-83
2021/04/04 13:41:58;;;;;;;17.30;5.07;;;;;;;;;;4984007;28;20137;-83
2021/04/04 13:44:45;;;;;;;12.73;4.68;;;;;;;;;;4974124;28;20439;-83
2021/04/04 13:47:26;;;;;;;15.05;4.93;;;;;;;;;;4970338;28;20081;-84
2021/04/04 13:49:54;;;;;;;14.35;4.80;;;;;;;;;;4984550;28;20061;-83
2021/04/04 13:52:22;;;;;;;16.77;5.05;;;;;;;;;;4985132;28;20053;-84
2021/04/04 13:54:53;;;;;;;14.10;4.90;;;;;;;;;;4969211;28;20507;-83
2021/04/04 13:57:34;;;;;;;15.63;5.30;;;;;;;;;;4968371;28;20051;-84
2021/04/04 14:00:02;;;;;;;17.42;4.18;;;;;;;;;;4969383;28;20054;-82
2021/04/04 14:02:30;;;;;;;12.38;4.10;;;;;;;;;;4970920;28;20129;-84
2021/04/04 14:04:57;;;;;;;13.23;4.65;;;;;;;;;;4988374;28;20073;-84
2021/04/04 14:07:24;;;;;;;16.08;5.03;;;;;;;;;;4966430;28;20097;-84
2021/04/04 14:09:51;;;;;;;15.85;4.95;;;;;;;;;;4969955;28;20868;-84
2021/04/04 14:12:18;;;;;;;16.00;5.22;;;;;;;;;;4970420;28;20431;-83
2021/04/04 14:14:46;;;;;;;17.05;6.85;;;;;;;;;;4967307;28;20125;-83
2021/04/04 14:17:14;;;;;;;19.45;5.55;;;;;;;;;;4985131;28;20054;-83
2021/04/04 14:19:41;;;;;;;22.17;5.97;;;;;;;;;;4987397;28;20117;-83
2021/04/04 14:22:08;;;;;;;17.63;5.75;;;;;;;;;;4969050;28;20087;-83
2021/04/04 14:24:36;;;;;;;24.23;5.70;;;;;;;;;;4971380;28;20042;-83
2021/04/04 14:27:07;;;;;;;12.07;4.70;;;;;;;;;;4968416;28;20558;-81
2021/04/04 14:29:34;;;;;;;16.27;4.97;;;;;;;;;;4987371;28;20046;-80
2021/04/04 14:32:01;;;;;;;20.50;5.20;;;;;;;;;;4969566;28;20061;-81
2021/04/04 14:34:28;;;;;;;14.52;4.90;;;;;;;;;;4970366;28;20141;-81
2021/04/04 14:36:55;;;;;;;14.82;4.82;;;;;;;;;;4970194;28;20061;-80
2021/04/04 14:39:22;;;;;;;15.48;4.63;;;;;;;;;;4968619;28;20077;-80
2021/04/04 14:41:53;;;;;;;18.90;4.85;;;;;;;;;;4985762;28;20050;-81
2021/04/04 14:46:47;;;;;;;15.98;5.18;;;;;;;;;;4986659;28;20573;-81
2021/04/04 14:49:27;;;;;;;26.67;5.70;;;;;;;;;;4969000;28;20150;-80
2021/04/04 14:51:54;;;;;;;19.38;5.20;;;;;;;;;;4970623;28;20042;-80